createdAt,value
2022-09-17T00:00:24.109Z,2.81
2022-09-17T00:01:17.226Z,2.88
2022-09-17T00:02:07.030Z,2.57
2022-09-17T00:02:56.289Z,2.70
2022-09-17T00:03:43.279Z,3.13
2022-09-17T00:04:29.870Z,3.16
2022-09-17T00:05:16.400Z,3.27
2022-09-17T00:06:07.151Z,3.52
2022-09-17T00:06:53.646Z,3.22
2022-09-17T00:07:40.041Z,2.90
2022-09-17T00:08:26.485Z,2.73
2022-09-17T00:09:13.392Z,2.52
2022-09-17T00:09:59.818Z,2.43
2022-09-17T00:10:46.595Z,2.41
2022-09-17T00:11:36.134Z,2.22
2022-09-17T00:12:22.609Z,2.35
2022-09-17T00:13:11.478Z,2.25
2022-09-17T00:14:01.110Z,2.35
2022-09-17T00:14:47.788Z,2.41
2022-09-17T00:15:43.851Z,2.65
2022-09-17T00:16:33.833Z,2.38
2022-09-17T00:17:20.295Z,2.65
2022-09-17T00:18:07.197Z,2.60
2022-09-17T00:18:54.368Z,2.28
2022-09-17T00:19:40.871Z,2.37
2022-09-17T00:20:27.728Z,2.49
2022-09-17T00:21:19.279Z,2.44
2022-09-17T00:22:05.722Z,2.57
2022-09-17T00:22:53.986Z,2.64
2022-09-17T00:23:40.400Z,2.14
2022-09-17T00:24:27.071Z,2.14
2022-09-17T00:25:13.508Z,2.18
2022-09-17T00:25:59.915Z,2.21
2022-09-17T00:26:47.221Z,2.11
2022-09-17T00:27:33.640Z,2.39
2022-09-17T00:28:20.162Z,2.35
2022-09-17T00:29:07.093Z,2.30
2022-09-17T00:29:53.714Z,2.35
2022-09-17T00:30:45.338Z,2.70
2022-09-17T00:31:33.136Z,2.40
2022-09-17T00:32:19.571Z,2.22
2022-09-17T00:33:06.205Z,2.24
2022-09-17T00:33:53.518Z,2.19
2022-09-17T00:34:40.037Z,2.37
2022-09-17T00:35:27.731Z,2.29
2022-09-17T00:36:14.512Z,2.35
2022-09-17T00:37:01.112Z,2.13
2022-09-17T00:37:47.482Z,2.01
2022-09-17T00:38:34.575Z,2.12
2022-09-17T00:39:21.013Z,2.50
2022-09-17T00:40:08.304Z,2.37
2022-09-17T00:40:55.221Z,2.44
2022-09-17T00:41:43.748Z,2.37
2022-09-17T00:42:30.206Z,2.04
2022-09-17T00:43:33.101Z,1.96
2022-09-17T00:44:48.373Z,1.91
2022-09-17T00:45:34.869Z,2.36
2022-09-17T00:46:39.072Z,2.19
2022-09-17T00:47:41.416Z,2.08
2022-09-17T00:48:27.907Z,2.09
2022-09-17T00:49:20.235Z,2.18
2022-09-17T00:50:09.410Z,2.37
2022-09-17T00:51:01.207Z,2.46
2022-09-17T00:52:00.289Z,2.29
2022-09-17T00:52:55.446Z,2.44
2022-09-17T00:53:42.455Z,2.32
2022-09-17T00:54:29.303Z,2.35
2022-09-17T00:55:32.073Z,2.78
2022-09-17T00:56:26.729Z,2.54
2022-09-17T00:57:14.016Z,2.58
2022-09-17T00:58:05.691Z,2.73
2022-09-17T00:58:55.529Z,3.05
2022-09-17T00:59:42.356Z,2.75
2022-09-17T01:00:30.921Z,2.46
2022-09-17T01:01:19.666Z,2.82
2022-09-17T01:02:06.941Z,3.09
2022-09-17T01:02:54.487Z,3.02
2022-09-17T01:03:41.726Z,3.38
2022-09-17T01:04:28.229Z,3.39
2022-09-17T01:05:16.483Z,3.12
2022-09-17T01:06:19.464Z,2.68
2022-09-17T01:07:30.680Z,3.26
2022-09-17T01:08:35.627Z,3.12
2022-09-17T01:09:48.745Z,2.67
2022-09-17T01:11:13.708Z,2.41
2022-09-17T01:12:10.563Z,2.53
2022-09-17T01:13:28.921Z,2.58
2022-09-17T01:14:33.531Z,2.96
2022-09-17T01:15:44.221Z,2.92
2022-09-17T01:16:44.276Z,2.53
2022-09-17T01:18:00.115Z,2.65
2022-09-17T01:19:23.069Z,2.77
2022-09-17T01:20:48.497Z,3.60
2022-09-17T01:22:02.958Z,4.28
2022-09-17T01:23:21.698Z,4.18
2022-09-17T01:24:33.060Z,4.29
2022-09-17T01:25:33.150Z,4.17
2022-09-17T01:26:37.795Z,4.15
2022-09-17T01:27:45.927Z,4.59
2022-09-17T01:28:58.610Z,4.27
2022-09-17T01:30:08.803Z,4.43
2022-09-17T01:31:21.482Z,4.43
2022-09-17T01:32:24.318Z,4.36
2022-09-17T01:33:28.748Z,4.25
2022-09-17T01:34:42.353Z,4.17
2022-09-17T01:35:43.169Z,3.92
2022-09-17T01:36:48.817Z,4.37
2022-09-17T01:38:01.649Z,3.90
2022-09-17T01:38:49.036Z,3.87
2022-09-17T01:39:54.019Z,3.96
2022-09-17T01:40:55.736Z,3.82
2022-09-17T01:41:59.592Z,3.67
2022-09-17T01:43:23.177Z,3.42
2022-09-17T01:44:32.055Z,2.99
2022-09-17T01:45:27.617Z,3.33
2022-09-17T01:46:24.904Z,3.48
2022-09-17T01:47:21.241Z,3.37
2022-09-17T01:48:19.889Z,2.71
2022-09-17T01:49:11.833Z,3.01
2022-09-17T01:50:06.136Z,2.79
2022-09-17T01:51:04.064Z,2.65
2022-09-17T01:51:51.849Z,2.74
2022-09-17T01:52:42.133Z,2.86
2022-09-17T01:53:38.622Z,2.56
2022-09-17T01:54:39.206Z,2.47
2022-09-17T01:55:38.127Z,2.76
2022-09-17T01:56:40.757Z,2.68
2022-09-17T01:57:33.727Z,2.85
2022-09-17T01:58:31.624Z,2.89
2022-09-17T01:59:46.867Z,2.63
2022-09-17T02:00:35.275Z,2.75
2022-09-17T02:01:28.608Z,2.71
2022-09-17T02:02:38.578Z,2.88
2022-09-17T02:03:35.038Z,2.90
2022-09-17T02:04:38.571Z,2.89
2022-09-17T02:05:35.666Z,2.43
2022-09-17T02:06:30.016Z,2.80
2022-09-17T02:07:22.609Z,2.66
2022-09-17T02:08:16.377Z,3.22
2022-09-17T02:09:15.576Z,2.66
2022-09-17T02:10:06.556Z,2.70
2022-09-17T02:11:11.858Z,2.47
2022-09-17T02:12:05.335Z,2.87
2022-09-17T02:13:00.591Z,2.89
2022-09-17T02:14:00.228Z,3.12
2022-09-17T02:14:55.835Z,2.89
2022-09-17T02:15:55.433Z,2.46
2022-09-17T02:16:51.993Z,2.74
2022-09-17T02:17:51.863Z,3.01
2022-09-17T02:18:50.822Z,2.78
2022-09-17T02:19:39.366Z,2.86
2022-09-17T02:20:45.960Z,2.73
2022-09-17T02:21:40.863Z,2.68
2022-09-17T02:22:41.515Z,2.47
2022-09-17T02:23:34.591Z,2.70
2022-09-17T02:24:31.094Z,2.85
2022-09-17T02:25:31.530Z,3.00
2022-09-17T02:26:21.179Z,2.83
2022-09-17T02:27:37.176Z,2.34
2022-09-17T02:28:41.903Z,2.75
2022-09-17T02:29:35.762Z,2.48
2022-09-17T02:30:22.200Z,2.59
2022-09-17T02:31:09.667Z,2.74
2022-09-17T02:31:56.386Z,3.11
2022-09-17T02:32:43.762Z,2.76
2022-09-17T02:33:35.176Z,3.01
2022-09-17T02:34:25.179Z,2.69
2022-09-17T02:35:14.192Z,2.54
2022-09-17T02:36:01.541Z,2.93
2022-09-17T02:36:48.212Z,3.03
2022-09-17T02:37:35.139Z,2.93
2022-09-17T02:38:26.129Z,2.81
2022-09-17T02:39:12.783Z,2.61
2022-09-17T02:39:59.853Z,2.49
2022-09-17T02:41:00.694Z,2.74
2022-09-17T02:42:17.343Z,2.92
2022-09-17T02:43:22.776Z,3.08
2022-09-17T02:44:21.827Z,2.81
2022-09-17T02:45:28.893Z,3.01
2022-09-17T02:46:53.760Z,2.71
2022-09-17T02:48:07.875Z,2.79
2022-09-17T02:49:44.802Z,3.24
2022-09-17T02:50:52.384Z,2.72
2022-09-17T02:51:53.824Z,2.71
2022-09-17T02:53:07.751Z,2.99
2022-09-17T02:54:10.057Z,2.83
2022-09-17T02:55:21.433Z,3.07
2022-09-17T02:56:34.001Z,2.94
2022-09-17T02:57:30.352Z,3.34
2022-09-17T02:58:16.708Z,3.30
2022-09-17T02:59:11.828Z,2.97
2022-09-17T03:00:20.726Z,3.04
2022-09-17T03:01:19.443Z,3.73
2022-09-17T03:02:16.199Z,2.97
2022-09-17T03:03:13.111Z,3.08
2022-09-17T03:04:05.854Z,2.74
2022-09-17T03:04:55.751Z,2.89
2022-09-17T03:05:44.097Z,3.02
2022-09-17T03:06:30.998Z,3.16
2022-09-17T03:07:20.142Z,2.86
2022-09-17T03:08:09.591Z,2.72
2022-09-17T03:08:57.196Z,2.96
2022-09-17T03:09:44.425Z,3.09
2022-09-17T03:10:33.449Z,3.21
2022-09-17T03:11:20.491Z,3.00
2022-09-17T03:12:07.164Z,3.05
2022-09-17T03:12:53.874Z,3.07
2022-09-17T03:13:41.342Z,3.28
2022-09-17T03:14:27.756Z,3.39
2022-09-17T03:15:14.326Z,3.11
2022-09-17T03:16:03.370Z,3.15
2022-09-17T03:16:49.944Z,3.28
2022-09-17T03:17:36.480Z,3.01
2022-09-17T03:18:23.701Z,3.44
2022-09-17T03:19:10.230Z,3.10
2022-09-17T03:19:56.766Z,3.24
2022-09-17T03:20:43.166Z,3.48
2022-09-17T03:21:29.865Z,3.45
2022-09-17T03:22:16.307Z,3.53
2022-09-17T03:23:02.792Z,3.23
2022-09-17T03:23:49.251Z,3.21
2022-09-17T03:24:35.787Z,3.23
2022-09-17T03:25:22.321Z,3.37
2022-09-17T03:26:09.173Z,2.78
2022-09-17T03:26:55.697Z,2.87
2022-09-17T03:27:42.111Z,3.18
2022-09-17T03:28:28.577Z,2.94
2022-09-17T03:29:16.126Z,3.08
2022-09-17T03:30:02.781Z,3.22
2022-09-17T03:30:49.242Z,3.02
2022-09-17T03:31:35.762Z,2.92
2022-09-17T03:32:22.259Z,3.05
2022-09-17T03:33:08.644Z,3.27
2022-09-17T03:33:55.140Z,3.49
2022-09-17T03:34:41.517Z,3.48
2022-09-17T03:35:28.193Z,3.22
2022-09-17T03:36:14.593Z,3.57
2022-09-17T03:37:01.231Z,3.39
2022-09-17T03:37:47.648Z,3.55
2022-09-17T03:38:34.930Z,3.35
2022-09-17T03:39:21.391Z,3.03
2022-09-17T03:40:08.115Z,3.18
2022-09-17T03:41:03.759Z,2.87
2022-09-17T03:41:50.196Z,2.98
2022-09-17T03:42:36.648Z,2.69
2022-09-17T03:43:23.261Z,2.93
2022-09-17T03:44:10.478Z,2.75
2022-09-17T03:44:57.352Z,2.80
2022-09-17T03:45:43.756Z,3.58
2022-09-17T03:46:30.427Z,4.03
2022-09-17T03:47:17.285Z,3.60
2022-09-17T03:48:03.845Z,3.10
2022-09-17T03:48:50.512Z,3.22
2022-09-17T03:49:36.913Z,3.33
2022-09-17T03:50:24.391Z,3.43
2022-09-17T03:51:11.377Z,3.02
2022-09-17T03:51:58.658Z,3.02
2022-09-17T03:52:45.505Z,2.85
2022-09-17T03:53:32.732Z,3.01
2022-09-17T03:54:19.221Z,3.47
2022-09-17T03:55:06.265Z,3.33
2022-09-17T03:55:52.785Z,3.19
2022-09-17T03:56:39.199Z,3.33
2022-09-17T03:57:25.770Z,3.65
2022-09-17T03:58:12.184Z,3.51
2022-09-17T03:58:59.774Z,3.02
2022-09-17T03:59:46.233Z,3.02
2022-09-17T04:00:33.494Z,3.01
2022-09-17T04:01:26.396Z,3.30
2022-09-17T04:02:12.972Z,3.25
2022-09-17T04:02:59.514Z,2.80
2022-09-17T04:03:46.114Z,2.95
2022-09-17T04:04:32.610Z,2.90
2022-09-17T04:05:19.238Z,2.95
2022-09-17T04:06:05.987Z,3.31
2022-09-17T04:06:52.475Z,3.24
2022-09-17T04:07:41.248Z,3.39
2022-09-17T04:08:27.881Z,3.48
2022-09-17T04:09:14.328Z,3.69
2022-09-17T04:10:00.986Z,3.06
2022-09-17T04:10:48.373Z,2.87
2022-09-17T04:11:37.403Z,2.64
2022-09-17T04:12:23.863Z,2.69
2022-09-17T04:13:11.162Z,2.52
2022-09-17T04:13:57.625Z,2.74
2022-09-17T04:14:44.088Z,3.17
2022-09-17T04:15:30.468Z,2.89
2022-09-17T04:16:16.991Z,2.43
2022-09-17T04:17:03.530Z,2.78
2022-09-17T04:17:49.958Z,2.86
2022-09-17T04:18:36.727Z,2.85
2022-09-17T04:19:23.151Z,2.91
2022-09-17T04:20:09.909Z,2.88
2022-09-17T04:20:57.019Z,2.79
2022-09-17T04:21:43.440Z,2.85
2022-09-17T04:22:29.857Z,2.73
2022-09-17T04:23:18.488Z,2.98
2022-09-17T04:24:05.082Z,3.09
2022-09-17T04:24:51.722Z,3.46
2022-09-17T04:25:39.015Z,2.76
2022-09-17T04:26:25.649Z,2.83
2022-09-17T04:27:12.276Z,2.66
2022-09-17T04:27:58.814Z,2.80
2022-09-17T04:28:46.330Z,3.03
2022-09-17T04:29:32.843Z,2.76
2022-09-17T04:30:19.510Z,2.99
2022-09-17T04:31:06.169Z,2.98
2022-09-17T04:31:53.024Z,3.04
2022-09-17T04:32:39.793Z,3.40
2022-09-17T04:33:26.244Z,3.22
2022-09-17T04:34:12.779Z,3.06
2022-09-17T04:34:59.264Z,3.20
2022-09-17T04:35:45.832Z,3.11
2022-09-17T04:36:32.261Z,3.57
2022-09-17T04:37:19.790Z,3.96
2022-09-17T04:38:06.415Z,3.55
2022-09-17T04:38:53.459Z,3.02
2022-09-17T04:39:40.120Z,2.90
2022-09-17T04:40:27.745Z,3.29
2022-09-17T04:41:14.293Z,3.70
2022-09-17T04:42:00.787Z,3.84
2022-09-17T04:42:47.290Z,3.51
2022-09-17T04:43:34.497Z,3.70
2022-09-17T04:44:21.081Z,3.65
2022-09-17T04:45:07.784Z,3.95
2022-09-17T04:45:54.315Z,3.10
2022-09-17T04:46:40.856Z,3.72
2022-09-17T04:47:27.318Z,3.39
2022-09-17T04:48:13.770Z,3.22
2022-09-17T04:49:00.401Z,2.87
2022-09-17T04:49:46.864Z,3.00
2022-09-17T04:50:33.316Z,3.14
2022-09-17T04:51:19.715Z,3.63
2022-09-17T04:52:06.296Z,3.30
2022-09-17T04:52:52.760Z,3.78
2022-09-17T04:53:39.207Z,4.01
2022-09-17T04:54:25.743Z,3.24
2022-09-17T04:55:13.767Z,3.47
2022-09-17T04:56:00.356Z,3.82
2022-09-17T04:56:46.776Z,3.28
2022-09-17T04:57:33.304Z,3.67
2022-09-17T04:58:19.811Z,3.68
2022-09-17T04:59:06.314Z,3.54
2022-09-17T04:59:52.734Z,3.88
2022-09-17T05:00:39.475Z,3.29
2022-09-17T05:01:26.494Z,3.31
2022-09-17T05:02:12.905Z,2.87
2022-09-17T05:02:59.436Z,3.62
2022-09-17T05:03:46.229Z,3.38
2022-09-17T05:04:32.664Z,3.19
2022-09-17T05:05:19.536Z,3.58
2022-09-17T05:06:06.290Z,3.11
2022-09-17T05:06:52.750Z,3.37
2022-09-17T05:07:40.329Z,4.01
2022-09-17T05:08:26.751Z,3.53
2022-09-17T05:09:14.702Z,3.59
2022-09-17T05:10:01.172Z,3.49
2022-09-17T05:10:47.597Z,3.11
2022-09-17T05:11:34.393Z,3.35
2022-09-17T05:12:20.801Z,2.88
2022-09-17T05:13:07.410Z,2.88
2022-09-17T05:13:54.001Z,3.17
2022-09-17T05:14:40.451Z,3.18
2022-09-17T05:15:27.694Z,3.57
2022-09-17T05:16:14.402Z,3.61
2022-09-17T05:17:01.070Z,3.78
2022-09-17T05:17:47.910Z,3.98
2022-09-17T05:18:34.300Z,3.47
2022-09-17T05:19:22.289Z,3.98
2022-09-17T05:20:09.730Z,3.75
2022-09-17T05:20:56.398Z,3.26
2022-09-17T05:21:42.916Z,3.49
2022-09-17T05:22:29.741Z,3.14
2022-09-17T05:23:16.460Z,2.91
2022-09-17T05:24:03.213Z,3.05
2022-09-17T05:24:50.240Z,3.14
2022-09-17T05:25:36.696Z,3.59
2022-09-17T05:26:23.243Z,3.19
2022-09-17T05:27:09.656Z,3.06
2022-09-17T05:27:56.380Z,3.03
2022-09-17T05:28:43.373Z,3.00
2022-09-17T05:29:29.787Z,3.08
2022-09-17T05:30:16.359Z,2.93
2022-09-17T05:31:03.987Z,2.89
2022-09-17T05:31:51.077Z,3.13
2022-09-17T05:32:39.143Z,2.65
2022-09-17T05:33:26.345Z,2.94
2022-09-17T05:34:12.859Z,2.83
2022-09-17T05:35:03.604Z,3.27
2022-09-17T05:35:52.238Z,3.95
2022-09-17T05:36:38.683Z,3.36
2022-09-17T05:37:25.129Z,2.91
2022-09-17T05:38:11.596Z,3.27
2022-09-17T05:38:58.110Z,3.28
2022-09-17T05:39:44.635Z,2.94
2022-09-17T05:40:33.033Z,3.26
2022-09-17T05:41:19.529Z,3.47
2022-09-17T05:42:06.226Z,3.03
2022-09-17T05:42:52.612Z,3.58
2022-09-17T05:43:39.007Z,3.04
2022-09-17T05:44:25.986Z,3.63
2022-09-17T05:45:12.791Z,3.88
2022-09-17T05:46:06.836Z,4.49
2022-09-17T05:46:54.272Z,4.01
2022-09-17T05:47:40.885Z,4.21
2022-09-17T05:48:27.358Z,4.01
2022-09-17T05:49:15.262Z,3.90
2022-09-17T05:50:01.678Z,4.04
2022-09-17T05:50:48.593Z,3.35
2022-09-17T05:51:35.204Z,3.21
2022-09-17T05:52:21.603Z,3.44
2022-09-17T05:53:12.285Z,3.74
2022-09-17T05:53:58.796Z,3.21
2022-09-17T05:54:46.632Z,3.58
2022-09-17T05:55:34.978Z,2.89
2022-09-17T05:56:22.019Z,2.91
2022-09-17T05:57:08.836Z,3.48
2022-09-17T05:57:55.369Z,3.06
2022-09-17T05:58:41.939Z,3.62
2022-09-17T05:59:29.688Z,3.35
2022-09-17T06:00:17.169Z,2.74
2022-09-17T06:01:04.311Z,2.77
2022-09-17T06:01:51.035Z,2.90
2022-09-17T06:02:37.889Z,3.51
2022-09-17T06:03:24.435Z,3.66
2022-09-17T06:04:11.184Z,3.70
2022-09-17T06:05:00.779Z,3.49
2022-09-17T06:05:55.650Z,3.29
2022-09-17T06:06:42.752Z,3.00
2022-09-17T06:07:30.090Z,3.48
2022-09-17T06:08:16.642Z,4.09
2022-09-17T06:09:03.441Z,3.41
2022-09-17T06:09:50.001Z,2.93
2022-09-17T06:10:38.491Z,3.24
2022-09-17T06:11:25.072Z,2.96
2022-09-17T06:12:11.521Z,2.93
2022-09-17T06:12:59.743Z,3.05
2022-09-17T06:13:46.147Z,3.17
2022-09-17T06:14:32.618Z,3.03
2022-09-17T06:15:19.153Z,3.03
2022-09-17T06:16:05.969Z,2.90
2022-09-17T06:16:52.530Z,2.95
2022-09-17T06:17:39.455Z,2.94
2022-09-17T06:18:27.865Z,3.14
2022-09-17T06:19:14.250Z,3.21
2022-09-17T06:20:01.254Z,3.15
2022-09-17T06:20:58.905Z,2.99
2022-09-17T06:21:47.186Z,3.24
2022-09-17T06:22:33.667Z,3.33
2022-09-17T06:23:21.043Z,3.17
2022-09-17T06:24:10.380Z,2.95
2022-09-17T06:24:56.855Z,2.88
2022-09-17T06:25:43.245Z,2.85
2022-09-17T06:26:29.699Z,2.84
2022-09-17T06:27:16.292Z,2.93
2022-09-17T06:28:03.332Z,2.87
2022-09-17T06:28:50.106Z,2.84
2022-09-17T06:29:36.611Z,2.85
2022-09-17T06:30:23.000Z,2.96
2022-09-17T06:31:11.943Z,2.62
2022-09-17T06:31:58.508Z,2.81
2022-09-17T06:32:44.970Z,2.94
2022-09-17T06:33:32.489Z,3.18
2022-09-17T06:34:18.978Z,3.01
2022-09-17T06:35:06.269Z,3.26
2022-09-17T06:36:01.269Z,3.19
2022-09-17T06:36:49.626Z,2.72
2022-09-17T06:37:40.056Z,2.68
2022-09-17T06:38:31.888Z,2.85
2022-09-17T06:39:18.281Z,2.57
2022-09-17T06:40:05.097Z,2.66
2022-09-17T06:40:52.560Z,2.91
2022-09-17T06:41:39.209Z,3.11
2022-09-17T06:42:26.899Z,2.72
2022-09-17T06:43:13.517Z,2.37
2022-09-17T06:44:00.121Z,2.30
2022-09-17T06:44:46.636Z,2.35
2022-09-17T06:45:33.110Z,2.38
2022-09-17T06:46:19.623Z,2.31
2022-09-17T06:47:07.885Z,2.38
2022-09-17T06:47:54.477Z,2.07
2022-09-17T06:48:41.032Z,2.27
2022-09-17T06:49:28.728Z,2.56
2022-09-17T06:50:15.395Z,1.96
2022-09-17T06:51:04.607Z,2.49
2022-09-17T06:51:51.060Z,3.01
2022-09-17T06:52:38.741Z,2.46
2022-09-17T06:53:25.252Z,2.49
2022-09-17T06:54:12.361Z,2.76
2022-09-17T06:54:59.383Z,2.63
2022-09-17T06:55:45.840Z,2.50
2022-09-17T06:56:34.264Z,2.83
2022-09-17T06:57:20.864Z,2.87
2022-09-17T06:58:07.362Z,3.37
2022-09-17T06:58:54.247Z,2.61
2022-09-17T06:59:40.852Z,2.53
2022-09-17T07:00:27.296Z,2.67
2022-09-17T07:01:14.631Z,2.64
2022-09-17T07:02:01.404Z,2.68
2022-09-17T07:03:01.212Z,3.14
2022-09-17T07:03:49.640Z,3.28
2022-09-17T07:04:36.131Z,3.34
2022-09-17T07:05:22.676Z,2.74
2022-09-17T07:06:11.040Z,2.93
2022-09-17T07:06:57.483Z,3.02
2022-09-17T07:07:43.876Z,3.20
2022-09-17T07:08:34.431Z,2.96
2022-09-17T07:09:20.850Z,3.26
2022-09-17T07:10:07.873Z,3.53
2022-09-17T07:10:58.194Z,3.67
2022-09-17T07:11:44.823Z,2.89
2022-09-17T07:12:31.296Z,2.67
2022-09-17T07:13:17.930Z,2.70
2022-09-17T07:14:05.208Z,3.18
2022-09-17T07:14:51.664Z,3.09
2022-09-17T07:15:38.165Z,2.71
2022-09-17T07:16:26.591Z,2.89
2022-09-17T07:17:14.165Z,2.75
2022-09-17T07:18:07.184Z,3.18
2022-09-17T07:18:53.659Z,3.17
2022-09-17T07:19:40.268Z,3.06
2022-09-17T07:20:26.810Z,3.05
2022-09-17T07:21:13.256Z,2.90
2022-09-17T07:22:00.049Z,2.83
2022-09-17T07:22:54.421Z,2.81
2022-09-17T07:23:40.870Z,3.40
2022-09-17T07:24:32.024Z,3.31
2022-09-17T07:25:19.198Z,2.68
2022-09-17T07:26:08.904Z,2.39
2022-09-17T07:26:55.870Z,3.47
2022-09-17T07:27:42.276Z,3.31
2022-09-17T07:28:29.197Z,3.39
2022-09-17T07:29:15.603Z,3.04
2022-09-17T07:30:02.580Z,2.80
2022-09-17T07:30:50.485Z,3.30
2022-09-17T07:31:37.412Z,3.27
2022-09-17T07:32:25.259Z,2.93
2022-09-17T07:33:11.726Z,2.95
2022-09-17T07:33:59.290Z,2.82
2022-09-17T07:34:46.292Z,2.56
2022-09-17T07:35:32.757Z,2.85
2022-09-17T07:36:19.234Z,3.02
2022-09-17T07:37:05.695Z,3.80
2022-09-17T07:37:52.090Z,3.60
2022-09-17T07:38:39.585Z,3.32
2022-09-17T07:39:26.057Z,3.64
2022-09-17T07:40:12.504Z,3.24
2022-09-17T07:41:00.384Z,3.26
2022-09-17T07:41:47.178Z,3.29
2022-09-17T07:42:34.023Z,3.25
2022-09-17T07:43:20.594Z,3.28
2022-09-17T07:44:07.773Z,3.19
2022-09-17T07:44:57.469Z,3.89
2022-09-17T07:45:46.275Z,3.39
2022-09-17T07:46:32.869Z,3.85
2022-09-17T07:47:20.042Z,3.22
2022-09-17T07:48:06.932Z,2.93
2022-09-17T07:48:53.356Z,3.27
2022-09-17T07:49:39.776Z,3.33
2022-09-17T07:50:26.224Z,3.46
2022-09-17T07:51:24.000Z,3.49
2022-09-17T07:52:10.699Z,3.07
2022-09-17T07:52:57.091Z,2.92
2022-09-17T07:53:43.567Z,3.77
2022-09-17T07:54:30.274Z,3.11
2022-09-17T07:55:16.778Z,3.30
2022-09-17T07:56:03.304Z,3.72
2022-09-17T07:56:49.818Z,3.17
2022-09-17T07:57:36.687Z,3.12
2022-09-17T07:58:27.901Z,2.83
2022-09-17T07:59:14.344Z,3.08
2022-09-17T08:00:00.812Z,3.59
2022-09-17T08:00:49.278Z,3.80
2022-09-17T08:01:36.791Z,3.32
2022-09-17T08:02:24.658Z,3.41
2022-09-17T08:03:11.180Z,3.03
2022-09-17T08:03:57.564Z,3.25
2022-09-17T08:04:44.230Z,3.63
2022-09-17T08:05:32.276Z,3.18
2022-09-17T08:06:30.776Z,3.39
2022-09-17T08:07:17.247Z,3.21
2022-09-17T08:08:03.722Z,2.55
2022-09-17T08:08:50.322Z,2.73
2022-09-17T08:09:37.088Z,2.83
2022-09-17T08:10:23.725Z,2.90
2022-09-17T08:11:23.650Z,2.69
2022-09-17T08:12:19.419Z,2.72
2022-09-17T08:13:05.803Z,2.95
2022-09-17T08:13:53.824Z,2.66
2022-09-17T08:14:40.607Z,2.86
2022-09-17T08:15:27.171Z,3.12
2022-09-17T08:16:13.687Z,2.87
2022-09-17T08:17:00.122Z,2.67
2022-09-17T08:17:47.706Z,3.17
2022-09-17T08:18:35.576Z,2.82
2022-09-17T08:19:22.166Z,2.86
2022-09-17T08:20:09.051Z,2.79
2022-09-17T08:21:00.383Z,2.82
2022-09-17T08:21:47.216Z,3.76
2022-09-17T08:22:33.785Z,2.74
2022-09-17T08:23:20.439Z,3.11
2022-09-17T08:24:07.071Z,3.04
2022-09-17T08:24:53.461Z,3.16
2022-09-17T08:25:39.855Z,3.52
2022-09-17T08:26:27.396Z,3.43
2022-09-17T08:27:13.762Z,3.29
2022-09-17T08:28:00.177Z,2.97
2022-09-17T08:28:49.216Z,2.60
2022-09-17T08:29:35.712Z,3.29
2022-09-17T08:30:22.969Z,2.83
2022-09-17T08:31:09.617Z,2.92
2022-09-17T08:31:56.934Z,3.11
2022-09-17T08:32:43.308Z,2.71
2022-09-17T08:33:34.816Z,3.27
2022-09-17T08:34:21.345Z,2.93
2022-09-17T08:35:08.645Z,3.37
2022-09-17T08:35:59.416Z,3.26
2022-09-17T08:36:45.990Z,3.36
2022-09-17T08:37:32.796Z,2.91
2022-09-17T08:38:19.725Z,3.15
2022-09-17T08:39:06.470Z,3.41
2022-09-17T08:39:53.104Z,2.56
2022-09-17T08:40:52.377Z,2.47
2022-09-17T08:42:07.554Z,2.31
2022-09-17T08:43:02.324Z,2.65
2022-09-17T08:44:30.528Z,3.11
2022-09-17T08:45:19.131Z,2.79
2022-09-17T08:46:10.613Z,3.06
2022-09-17T08:47:06.141Z,3.17
2022-09-17T08:48:04.996Z,2.56
2022-09-17T08:49:16.488Z,2.93
2022-09-17T08:50:06.754Z,3.21
2022-09-17T08:50:56.294Z,3.01
2022-09-17T08:52:23.821Z,2.65
2022-09-17T08:53:24.108Z,2.27
2022-09-17T08:54:28.961Z,2.32
2022-09-17T08:55:35.645Z,2.19
2022-09-17T08:56:22.826Z,2.25
2022-09-17T08:57:35.188Z,2.49
2022-09-17T08:58:35.121Z,2.95
2022-09-17T08:59:39.011Z,3.01
2022-09-17T09:00:26.951Z,2.88
2022-09-17T09:01:35.401Z,2.81
2022-09-17T09:02:59.886Z,3.33
2022-09-17T09:04:00.199Z,3.07
2022-09-17T09:05:18.348Z,2.50
2022-09-17T09:06:10.530Z,2.42
2022-09-17T09:07:26.138Z,3.02
2022-09-17T09:08:29.783Z,2.85
2022-09-17T09:09:20.841Z,3.19
2022-09-17T09:10:24.399Z,3.41
2022-09-17T09:11:17.776Z,2.77
2022-09-17T09:12:22.482Z,2.60
2022-09-17T09:13:17.656Z,2.86
2022-09-17T09:14:09.846Z,3.02
2022-09-17T09:14:59.849Z,2.16
2022-09-17T09:15:55.057Z,1.96
2022-09-17T09:16:46.952Z,1.93
2022-09-17T09:17:42.079Z,2.31
2022-09-17T09:18:37.779Z,2.11
2022-09-17T09:19:28.233Z,2.10
2022-09-17T09:20:29.866Z,1.87
2022-09-17T09:21:27.571Z,2.11
2022-09-17T09:22:19.782Z,1.86
2022-09-17T09:23:19.074Z,1.83
2022-09-17T09:24:22.358Z,2.21
2022-09-17T09:25:11.848Z,1.58
2022-09-17T09:26:10.383Z,1.89
2022-09-17T09:27:22.401Z,2.49
2022-09-17T09:28:40.308Z,2.12
2022-09-17T09:29:29.593Z,2.01
2022-09-17T09:30:19.237Z,1.67
2022-09-17T09:31:31.478Z,1.78
2022-09-17T09:32:39.480Z,2.09
2022-09-17T09:33:37.230Z,1.67
2022-09-17T09:34:27.551Z,1.75
2022-09-17T09:35:22.312Z,2.04
2022-09-17T09:36:17.414Z,1.67
2022-09-17T09:37:25.838Z,1.77
2022-09-17T09:38:24.995Z,2.37
2022-09-17T09:39:24.818Z,2.46
2022-09-17T09:40:36.015Z,2.47
2022-09-17T09:41:43.565Z,2.09
2022-09-17T09:42:33.737Z,2.12
2022-09-17T09:43:32.769Z,2.25
2022-09-17T09:44:31.777Z,2.10
2022-09-17T09:45:37.038Z,2.19
2022-09-17T09:46:41.950Z,2.37
2022-09-17T09:48:00.881Z,1.66
2022-09-17T09:49:21.195Z,1.82
2022-09-17T09:50:38.413Z,2.02
2022-09-17T09:51:41.392Z,2.13
2022-09-17T09:52:48.820Z,2.57
2022-09-17T09:54:07.102Z,2.05
2022-09-17T09:55:07.403Z,1.77
2022-09-17T09:56:01.002Z,2.15
2022-09-17T09:57:07.246Z,3.02
2022-09-17T09:58:32.577Z,2.16
2022-09-17T09:59:19.805Z,2.19
2022-09-17T10:00:33.276Z,2.35
2022-09-17T10:01:21.045Z,2.31
2022-09-17T10:02:09.012Z,2.47
2022-09-17T10:03:19.837Z,2.20
2022-09-17T10:04:18.297Z,2.56
2022-09-17T10:05:10.993Z,2.29
2022-09-17T10:06:07.922Z,2.68
2022-09-17T10:07:23.469Z,2.37
2022-09-17T10:08:14.692Z,2.02
2022-09-17T10:09:01.037Z,1.75
2022-09-17T10:09:47.855Z,2.08
2022-09-17T10:10:34.282Z,2.08
2022-09-17T10:11:23.759Z,2.06
2022-09-17T10:12:10.817Z,2.04
2022-09-17T10:13:07.579Z,2.10
2022-09-17T10:14:15.540Z,2.03
2022-09-17T10:15:26.648Z,2.15
2022-09-17T10:16:20.097Z,1.89
2022-09-17T10:17:20.625Z,2.11
2022-09-17T10:18:19.139Z,1.89
2022-09-17T10:19:05.516Z,2.49
2022-09-17T10:20:10.555Z,2.17
2022-09-17T10:20:59.944Z,2.07
2022-09-17T10:21:46.460Z,2.11
2022-09-17T10:22:36.512Z,2.06
2022-09-17T10:23:30.151Z,1.99
2022-09-17T10:24:31.836Z,2.07
2022-09-17T10:25:28.428Z,2.09
2022-09-17T10:26:28.878Z,2.00
2022-09-17T10:27:19.643Z,1.68
2022-09-17T10:28:29.128Z,2.27
2022-09-17T10:29:20.855Z,2.54
2022-09-17T10:30:10.203Z,1.82
2022-09-17T10:31:08.437Z,2.28
2022-09-17T10:31:58.070Z,1.94
2022-09-17T10:33:04.611Z,2.04
2022-09-17T10:34:04.492Z,1.69
2022-09-17T10:35:05.940Z,1.85
2022-09-17T10:36:07.717Z,1.42
2022-09-17T10:36:58.557Z,1.68
2022-09-17T10:37:52.613Z,1.92
2022-09-17T10:38:46.026Z,2.30
2022-09-17T10:39:38.348Z,2.42
2022-09-17T10:40:28.368Z,2.18
2022-09-17T10:41:17.940Z,2.23
2022-09-17T10:42:19.501Z,1.79
2022-09-17T10:43:22.036Z,1.83
2022-09-17T10:44:18.459Z,1.51
2022-09-17T10:45:05.309Z,1.85
2022-09-17T10:45:59.580Z,2.00
2022-09-17T10:46:54.337Z,1.98
2022-09-17T10:47:44.160Z,1.63
2022-09-17T10:48:42.786Z,1.87
2022-09-17T10:49:47.088Z,1.87
2022-09-17T10:50:35.679Z,1.87
2022-09-17T10:51:25.502Z,1.77
2022-09-17T10:52:24.898Z,1.78
2022-09-17T10:53:16.660Z,2.12
2022-09-17T10:54:35.804Z,1.93
2022-09-17T10:55:55.935Z,2.12
2022-09-17T10:56:51.148Z,2.13
2022-09-17T10:58:10.122Z,1.71
2022-09-17T10:59:35.697Z,1.89
2022-09-17T11:00:24.287Z,1.99
2022-09-17T11:01:44.807Z,1.74
2022-09-17T11:02:53.821Z,1.91
2022-09-17T11:04:14.408Z,1.62
2022-09-17T11:05:24.363Z,2.43
2022-09-17T11:06:19.831Z,2.47
2022-09-17T11:07:25.879Z,2.25
2022-09-17T11:08:23.076Z,1.95
2022-09-17T11:09:26.879Z,1.85
2022-09-17T11:10:30.971Z,1.87
2022-09-17T11:11:30.278Z,2.13
2022-09-17T11:12:43.357Z,1.66
2022-09-17T11:14:04.706Z,2.07
2022-09-17T11:15:03.236Z,2.13
2022-09-17T11:16:20.933Z,1.89
2022-09-17T11:17:31.439Z,2.48
2022-09-17T11:18:34.731Z,2.48
2022-09-17T11:19:50.119Z,2.32
2022-09-17T11:20:58.369Z,1.20
2022-09-17T11:22:23.410Z,0.92
2022-09-17T11:23:47.322Z,0.83
2022-09-17T11:24:59.727Z,1.42
2022-09-17T11:25:59.711Z,1.53
2022-09-17T11:27:34.273Z,1.52
2022-09-17T11:29:01.077Z,1.17
2022-09-17T11:30:15.285Z,1.47
2022-09-17T11:31:24.031Z,1.67
2022-09-17T11:32:32.385Z,1.61
2022-09-17T11:33:25.177Z,1.35
2022-09-17T11:34:39.791Z,1.32
2022-09-17T11:35:37.080Z,1.09
2022-09-17T11:36:54.483Z,1.25
2022-09-17T11:37:51.612Z,1.17
2022-09-17T11:38:48.747Z,1.13
2022-09-17T11:39:51.847Z,1.19
2022-09-17T11:40:50.445Z,1.10
2022-09-17T11:41:43.922Z,1.43